Time;durP1;ratioP1;P1;durP2;ratioP2;P2;SDS_P1;SDS_P2;PMS_P1;PMS_P2;Temp;Humidity;BMP_temperature;BMP_pressure;BME280_temperature;BME280_humidity;BME280_pressure;Samples;Min_cycle;Max_cycle;Signal;HPM_P1;HPM_P2
2023/04/25 00:00:47;;;;;;;10.55;3.63;;;7.60;99.90;;;;;;4970888;28;20162;-47
2023/04/25 00:03:13;;;;;;;15.40;4.15;;;7.60;99.90;;;;;;4970809;28;20169;-47
2023/04/25 00:05:39;;;;;;;13.00;3.97;;;7.60;99.90;;;;;;4971000;28;20239;-49
2023/04/25 00:08:05;;;;;;;9.80;4.70;;;;;;;;;;4977845;28;20648;-47
2023/04/25 00:10:31;;;;;;;9.73;3.70;;;7.60;99.90;;;;;;4988895;28;20252;-48
2023/04/25 00:12:57;;;;;;;15.90;4.25;;;7.60;99.90;;;;;;4990447;28;20169;-48
2023/04/25 00:15:24;;;;;;;15.07;4.22;;;;;;;;;;4990441;28;20195;-49
2023/04/25 00:17:49;;;;;;;11.13;4.25;;;7.50;99.90;;;;;;4990609;28;20173;-48
2023/04/25 00:20:15;;;;;;;7.78;4.60;;;7.60;99.90;;;;;;4990501;28;20181;-48
2023/04/25 00:22:41;;;;;;;13.10;4.05;;;7.60;99.90;;;;;;4990139;28;20165;-48
2023/04/25 00:25:07;;;;;;;12.80;4.43;;;;;;;;;;4989919;28;20173;-48
2023/04/25 00:27:33;;;;;;;8.73;3.85;;;7.60;99.90;;;;;;4990182;28;20184;-48
2023/04/25 00:29:59;;;;;;;11.10;4.05;;;;;;;;;;5029951;28;20166;-48
2023/04/25 00:32:25;;;;;;;14.23;4.45;;;7.60;99.90;;;;;;5072723;28;20541;-48
2023/04/25 00:34:51;;;;;;;17.40;4.60;;;;;;;;;;5072097;28;20204;-51
2023/04/25 00:37:18;;;;;;;12.70;4.00;;;7.60;99.90;;;;;;5045492;28;20548;-49
2023/04/25 00:39:43;;;;;;;13.45;4.28;;;7.50;99.90;;;;;;4989683;28;20568;-53
2023/04/25 00:42:10;;;;;;;10.95;4.43;;;7.40;99.90;;;;;;4990005;28;20184;-52
2023/04/25 00:44:37;;;;;;;10.65;5.03;;;7.40;99.90;;;;;;4989435;28;20651;-53
2023/04/25 00:47:04;;;;;;;14.52;5.22;;;7.40;99.90;;;;;;4989699;28;20165;-54
2023/04/25 00:49:29;;;;;;;15.27;4.93;;;7.40;99.90;;;;;;4989826;28;20185;-48
2023/04/25 00:51:56;;;;;;;15.23;4.35;;;7.40;99.90;;;;;;4989866;28;20180;-47
2023/04/25 00:54:22;;;;;;;11.43;4.50;;;7.30;99.90;;;;;;4989530;28;20236;-48
2023/04/25 00:56:47;;;;;;;14.13;3.90;;;7.20;99.90;;;;;;4989764;28;20165;-48
2023/04/25 00:59:14;;;;;;;11.57;4.40;;;7.20;99.90;;;;;;4989640;28;20173;-49
2023/04/25 01:01:41;;;;;;;10.07;4.45;;;7.20;99.90;;;;;;4989710;28;20171;-50
2023/04/25 01:04:07;;;;;;;15.15;4.97;;;7.20;99.90;;;;;;4989680;28;20168;-47
2023/04/25 01:06:32;;;;;;;18.83;4.93;;;7.20;99.90;;;;;;4989572;28;20176;-47
2023/04/25 01:08:59;;;;;;;15.25;5.10;;;7.30;99.90;;;;;;4970641;28;20715;-47
2023/04/25 01:11:25;;;;;;;15.52;4.95;;;;;;;;;;4970393;28;20231;-47
2023/04/25 01:13:51;;;;;;;17.42;4.85;;;7.30;99.90;;;;;;4968765;28;20201;-47
2023/04/25 01:16:16;;;;;;;17.25;5.47;;;7.30;99.90;;;;;;4970032;28;20177;-48
2023/04/25 01:18:42;;;;;;;18.50;4.65;;;7.40;99.90;;;;;;4970177;28;20196;-53
2023/04/25 01:21:15;;;;;;;12.45;5.20;;;7.40;99.90;;;;;;4971105;28;20169;-52
2023/04/25 01:23:41;;;;;;;11.88;4.57;;;7.40;99.90;;;;;;4970250;28;20181;-52
2023/04/25 01:26:09;;;;;;;10.98;4.82;;;7.40;99.90;;;;;;4969537;28;20532;-52
2023/04/25 01:28:35;;;;;;;11.68;4.97;;;;;;;;;;4970213;28;20177;-53
2023/04/25 01:31:01;;;;;;;14.43;4.20;;;7.40;99.90;;;;;;4969759;28;20169;-53
2023/04/25 01:33:27;;;;;;;15.35;4.32;;;7.40;99.90;;;;;;4968918;28;20219;-53
2023/04/25 01:35:53;;;;;;;18.45;5.40;;;7.40;99.90;;;;;;4969432;28;20543;-53
2023/04/25 01:38:19;;;;;;;14.55;4.85;;;;;;;;;;4982804;28;20257;-53
2023/04/25 01:40:46;;;;;;;9.27;4.72;;;7.20;99.90;;;;;;4989412;28;20173;-53
2023/04/25 01:43:14;;;;;;;16.80;5.28;;;7.10;99.90;;;;;;4988960;28;20719;-52
2023/04/25 01:45:41;;;;;;;10.80;4.60;;;7.10;99.90;;;;;;4988921;28;20242;-52
2023/04/25 01:48:11;;;;;;;15.63;4.60;;;7.00;99.90;;;;;;4988920;28;20584;-52
2023/04/25 01:50:38;;;;;;;14.85;4.72;;;7.00;99.90;;;;;;4989260;28;20570;-52
2023/04/25 01:53:04;;;;;;;10.82;4.40;;;7.00;99.90;;;;;;4988924;28;20165;-53
2023/04/25 01:55:30;;;;;;;13.48;4.85;;;7.00;99.90;;;;;;4988863;28;20192;-52
2023/04/25 01:57:56;;;;;;;11.35;4.85;;;7.00;99.90;;;;;;4989107;28;20169;-51
2023/04/25 02:00:22;;;;;;;14.27;4.65;;;;;;;;;;4989002;28;20624;-52
2023/04/25 02:02:50;;;;;;;15.18;4.88;;;;;;;;;;4988801;28;20636;-52
2023/04/25 02:05:16;;;;;;;19.08;4.80;;;7.00;99.90;;;;;;4988871;28;20652;-47
2023/04/25 02:07:42;;;;;;;12.75;4.25;;;7.00;99.90;;;;;;4977545;28;20185;-47
2023/04/25 02:10:08;;;;;;;12.27;4.13;;;7.00;99.90;;;;;;4969218;28;20213;-47
2023/04/25 02:12:35;;;;;;;13.02;4.72;;;7.00;99.90;;;;;;4968097;28;20639;-47
2023/04/25 02:15:01;;;;;;;8.43;4.35;;;;;;;;;;4969174;28;20311;-48
2023/04/25 02:17:27;;;;;;;19.20;4.32;;;7.00;99.90;;;;;;4969685;28;20665;-52
2023/04/25 02:19:53;;;;;;;7.97;3.92;;;7.10;99.90;;;;;;4969513;28;20226;-52
2023/04/25 02:22:18;;;;;;;11.43;4.50;;;7.10;99.90;;;;;;4969327;28;20218;-53
2023/04/25 02:24:45;;;;;;;7.35;3.67;;;7.20;99.90;;;;;;4969044;28;20296;-53
2023/04/25 02:27:11;;;;;;;14.52;4.65;;;7.20;99.90;;;;;;4968834;28;20162;-53
2023/04/25 02:29:38;;;;;;;11.57;4.32;;;7.30;99.90;;;;;;4968920;28;20165;-53
2023/04/25 02:32:04;;;;;;;17.98;4.50;;;7.30;99.90;;;;;;4969129;28;20510;-53
2023/04/25 02:34:29;;;;;;;12.65;3.78;;;7.40;99.90;;;;;;4969187;28;20303;-52
2023/04/25 02:36:55;;;;;;;13.68;4.35;;;7.30;99.90;;;;;;4973706;28;20175;-53
2023/04/25 02:39:22;;;;;;;12.98;4.00;;;7.30;99.90;;;;;;4988323;28;20169;-53
2023/04/25 02:41:47;;;;;;;10.82;4.13;;;7.30;99.90;;;;;;4988329;28;20196;-52
2023/04/25 02:44:13;;;;;;;9.00;3.97;;;;;;;;;;4988424;28;20215;-53
2023/04/25 02:46:39;;;;;;;11.27;4.03;;;7.10;99.90;;;;;;4988380;28;20171;-52
2023/04/25 02:49:05;;;;;;;14.25;4.03;;;7.20;99.90;;;;;;4988350;28;20246;-52
2023/04/25 02:51:30;;;;;;;11.45;3.95;;;7.20;99.90;;;;;;4988388;28;20571;-52
2023/04/25 02:53:56;;;;;;;15.15;4.05;;;7.20;99.90;;;;;;4988493;28;20212;-53
2023/04/25 02:56:21;;;;;;;12.13;5.55;;;7.20;99.90;;;;;;4988237;28;20173;-54
2023/04/25 02:58:47;;;;;;;9.63;3.67;;;7.20;99.90;;;;;;4988153;28;20169;-53
2023/04/25 03:01:13;;;;;;;8.60;4.13;;;;;;;;;;4990807;28;20165;-51
2023/04/25 03:03:39;;;;;;;14.90;4.53;;;;;;;;;;4991208;28;20167;-53
2023/04/25 03:06:05;;;;;;;9.52;4.55;;;7.20;99.90;;;;;;4990105;28;20173;-54
2023/04/25 03:08:32;;;;;;;12.65;4.05;;;7.20;99.90;;;;;;4971832;28;20174;-53
2023/04/25 03:10:58;;;;;;;15.90;4.15;;;7.10;99.90;;;;;;4972334;28;20192;-54
2023/04/25 03:13:24;;;;;;;15.18;4.50;;;7.20;99.90;;;;;;4972164;28;20170;-53
2023/04/25 03:15:50;;;;;;;15.13;4.93;;;;;;;;;;4971769;28;20181;-52
2023/04/25 03:18:15;;;;;;;10.52;4.47;;;7.20;99.90;;;;;;4970545;28;20538;-53
2023/04/25 03:20:41;;;;;;;17.55;5.10;;;;;;;;;;4972096;28;20533;-52
2023/04/25 03:23:07;;;;;;;12.00;4.75;;;7.10;99.90;;;;;;4971797;28;20527;-51
2023/04/25 03:25:33;;;;;;;15.10;4.97;;;;;;;;;;4971641;28;20173;-53
2023/04/25 03:27:59;;;;;;;11.82;5.10;;;;;;;;;;4971723;28;20170;-52
2023/04/25 03:30:25;;;;;;;15.55;5.10;;;7.10;99.90;;;;;;4972015;28;20633;-54
2023/04/25 03:32:50;;;;;;;18.88;4.70;;;7.10;99.90;;;;;;4986192;28;20184;-52
2023/04/25 03:35:16;;;;;;;10.65;4.72;;;;;;;;;;4989022;28;20265;-53
2023/04/25 03:37:45;;;;;;;12.32;4.43;;;7.20;99.90;;;;;;4990893;28;20588;-52
2023/04/25 03:40:11;;;;;;;12.02;5.32;;;7.10;99.90;;;;;;4991287;28;20274;-53
2023/04/25 03:42:36;;;;;;;14.63;4.82;;;7.10;99.90;;;;;;4990449;28;20196;-53
2023/04/25 03:45:02;;;;;;;17.15;5.80;;;7.10;99.90;;;;;;4990812;28;20207;-54
2023/04/25 03:47:28;;;;;;;9.90;4.82;;;7.10;99.90;;;;;;4991072;28;20710;-53
2023/04/25 03:49:53;;;;;;;9.98;4.70;;;7.10;99.90;;;;;;4991087;28;20164;-52
2023/04/25 03:52:19;;;;;;;13.10;4.82;;;7.10;99.90;;;;;;4990676;28;20173;-52
2023/04/25 03:54:45;;;;;;;13.90;5.25;;;;;;;;;;4990890;28;20208;-53
2023/04/25 03:57:10;;;;;;;15.23;6.00;;;7.10;99.90;;;;;;4990650;28;20694;-53
2023/04/25 03:59:36;;;;;;;18.17;4.60;;;7.10;99.90;;;;;;4990233;28;20173;-53
2023/04/25 04:02:02;;;;;;;11.85;4.25;;;7.00;99.90;;;;;;4982059;28;20186;-53
2023/04/25 04:04:27;;;;;;;13.20;4.65;;;7.10;99.90;;;;;;4971415;28;20169;-52
2023/04/25 04:06:53;;;;;;;12.13;4.82;;;7.10;99.90;;;;;;4971058;28;20763;-53
2023/04/25 04:09:19;;;;;;;18.35;4.88;;;7.10;99.90;;;;;;4970945;28;20621;-53
2023/04/25 04:11:45;;;;;;;8.50;4.45;;;7.00;99.90;;;;;;4985147;28;20291;-52
2023/04/25 04:14:10;;;;;;;14.77;4.60;;;7.00;99.90;;;;;;4990256;28;20291;-48
2023/04/25 04:16:36;;;;;;;12.48;4.55;;;7.00;99.90;;;;;;4990649;28;20168;-48
2023/04/25 04:19:02;;;;;;;16.80;5.10;;;7.00;99.90;;;;;;4990615;28;20585;-51
2023/04/25 04:21:27;;;;;;;13.55;4.63;;;7.00;99.90;;;;;;4990853;28;20721;-48
2023/04/25 04:23:54;;;;;;;15.48;4.60;;;7.10;99.90;;;;;;4990690;28;20180;-48
2023/04/25 04:26:23;;;;;;;12.07;5.78;;;7.00;99.90;;;;;;4989870;28;20260;-48
2023/04/25 04:28:50;;;;;;;14.38;4.40;;;7.00;99.90;;;;;;4990456;28;20183;-47
2023/04/25 04:31:18;;;;;;;14.38;4.22;;;7.10;99.90;;;;;;4989313;28;20520;-46
2023/04/25 04:33:44;;;;;;;12.75;4.72;;;;;;;;;;4989973;28;20671;-47
2023/04/25 04:36:10;;;;;;;10.20;4.22;;;7.00;99.90;;;;;;4990050;28;20222;-47
2023/04/25 04:38:36;;;;;;;16.35;4.60;;;;;;;;;;4989934;28;20172;-47
2023/04/25 04:41:02;;;;;;;20.08;4.78;;;7.10;99.90;;;;;;4989838;28;20252;-47
2023/04/25 04:43:28;;;;;;;14.88;5.25;;;7.10;99.90;;;;;;4990162;28;20248;-47
2023/04/25 04:45:56;;;;;;;17.92;5.05;;;;;;;;;;4990377;28;20180;-47
2023/04/25 04:48:21;;;;;;;14.90;4.30;;;7.10;99.90;;;;;;4990063;28;20169;-47
2023/04/25 04:50:47;;;;;;;17.60;4.82;;;7.10;99.90;;;;;;4989899;28;20180;-47
2023/04/25 04:53:13;;;;;;;19.70;5.07;;;7.10;99.90;;;;;;4989677;28;20169;-47
2023/04/25 04:55:40;;;;;;;11.70;4.72;;;7.10;99.90;;;;;;4990036;28;20271;-47
2023/04/25 04:58:06;;;;;;;16.42;6.28;;;;;;;;;;4989879;28;20180;-47
2023/04/25 05:00:32;;;;;;;11.25;4.80;;;7.20;99.90;;;;;;4989804;28;20169;-47
2023/04/25 05:02:59;;;;;;;13.25;5.00;;;;;;;;;;4971728;28;20177;-48
2023/04/25 05:05:25;;;;;;;12.38;5.15;;;7.20;99.90;;;;;;4970539;28;20179;-48
2023/04/25 05:07:50;;;;;;;12.32;4.97;;;7.30;99.90;;;;;;4970204;28;20178;-53
2023/04/25 05:10:17;;;;;;;14.85;4.95;;;7.30;99.90;;;;;;4970128;28;20224;-53
2023/04/25 05:12:43;;;;;;;17.65;5.45;;;7.40;99.90;;;;;;4970172;28;20193;-48
2023/04/25 05:15:09;;;;;;;16.35;5.13;;;7.50;99.90;;;;;;4970096;28;20623;-53
2023/04/25 05:17:34;;;;;;;14.65;5.07;;;7.50;99.90;;;;;;4970396;28;20238;-52
2023/04/25 05:20:00;;;;;;;9.70;4.03;;;7.60;99.90;;;;;;4970259;28;20177;-53
2023/04/25 05:22:26;;;;;;;17.50;4.93;;;;;;;;;;4970079;28;20201;-52
2023/04/25 05:24:51;;;;;;;16.63;5.25;;;7.70;99.90;;;;;;4969966;28;20652;-53
2023/04/25 05:27:18;;;;;;;14.63;5.13;;;7.80;99.90;;;;;;4969892;28;20700;-52
2023/04/25 05:29:44;;;;;;;19.40;5.65;;;7.90;99.90;;;;;;4969713;28;20265;-50
2023/04/25 05:32:09;;;;;;;12.60;4.35;;;7.90;99.90;;;;;;4980960;28;20183;-53
2023/04/25 05:34:36;;;;;;;18.17;5.13;;;8.00;99.90;;;;;;4989034;28;20287;-53
2023/04/25 05:37:01;;;;;;;14.05;4.45;;;8.00;99.90;;;;;;4989268;28;20196;-53
2023/04/25 05:39:27;;;;;;;16.50;4.70;;;7.90;99.90;;;;;;4989497;28;20640;-54
2023/04/25 05:41:53;;;;;;;11.23;4.10;;;;;;;;;;4989509;28;20169;-55
2023/04/25 05:44:19;;;;;;;10.02;3.90;;;7.90;99.90;;;;;;4989264;28;20243;-53
2023/04/25 05:46:45;;;;;;;16.17;4.43;;;8.00;99.90;;;;;;4989127;28;20632;-54
2023/04/25 05:49:10;;;;;;;13.20;5.18;;;8.00;99.90;;;;;;4989013;28;20221;-53
2023/04/25 05:51:36;;;;;;;15.20;4.40;;;8.10;99.90;;;;;;4989120;28;20660;-53
2023/04/25 05:54:01;;;;;;;10.90;4.38;;;8.20;99.90;;;;;;4988777;28;20257;-53
2023/04/25 05:56:27;;;;;;;14.88;5.00;;;8.30;99.90;;;;;;4989213;28;20173;-53
2023/04/25 05:58:53;;;;;;;10.25;4.35;;;8.30;99.90;;;;;;4989038;28;20191;-54
2023/04/25 06:01:19;;;;;;;9.02;4.00;;;;;;;;;;4981893;28;20173;-54
2023/04/25 06:03:44;;;;;;;18.48;4.18;;;8.30;99.90;;;;;;4969506;28;20536;-53
2023/04/25 06:06:11;;;;;;;10.82;3.10;;;8.30;99.90;;;;;;4969603;28;20181;-52
2023/04/25 06:08:38;;;;;;;10.68;3.90;;;8.40;99.90;;;;;;4969344;28;20228;-49
2023/04/25 06:11:04;;;;;;;14.18;4.05;;;;;;;;;;4969545;28;20264;-53
2023/04/25 06:13:30;;;;;;;10.57;3.60;;;8.50;99.90;;;;;;4969330;28;20269;-54
2023/04/25 06:15:56;;;;;;;15.85;5.38;;;;;;;;;;4969595;28;20264;-54
2023/04/25 06:18:21;;;;;;;17.15;4.25;;;8.60;99.90;;;;;;4969275;28;20169;-54
2023/04/25 06:20:47;;;;;;;12.20;4.18;;;8.40;99.90;;;;;;4968058;28;20625;-53
2023/04/25 06:23:13;;;;;;;17.00;4.80;;;;;;;;;;4969213;28;20626;-53
2023/04/25 06:25:38;;;;;;;8.18;3.30;;;8.40;99.90;;;;;;4969244;28;20174;-53
2023/04/25 06:28:04;;;;;;;17.80;4.07;;;8.50;99.90;;;;;;4969053;28;20176;-50
2023/04/25 06:30:29;;;;;;;15.07;4.47;;;8.50;99.90;;;;;;4968393;28;20174;-52
2023/04/25 06:32:55;;;;;;;13.63;4.50;;;8.50;99.90;;;;;;4950134;28;20536;-53
2023/04/25 06:35:21;;;;;;;27.05;4.50;;;8.50;99.90;;;;;;4951107;28;20566;-53
2023/04/25 06:37:46;;;;;;;13.68;4.75;;;8.60;99.90;;;;;;4952962;28;20177;-51
2023/04/25 06:40:12;;;;;;;13.30;4.43;;;8.70;99.90;;;;;;4953149;28;20175;-54
2023/04/25 06:42:37;;;;;;;13.10;4.43;;;8.80;99.90;;;;;;4953141;28;20174;-52
2023/04/25 06:45:03;;;;;;;16.88;4.65;;;8.80;99.90;;;;;;4952989;28;20676;-54
2023/04/25 06:47:29;;;;;;;12.73;3.72;;;;;;;;;;4953048;28;20574;-49
2023/04/25 06:49:55;;;;;;;15.85;4.65;;;;;;;;;;4952109;28;20261;-47
2023/04/25 06:52:21;;;;;;;14.50;4.70;;;9.00;99.90;;;;;;4953165;28;20198;-53
2023/04/25 06:54:47;;;;;;;12.00;3.90;;;9.10;99.90;;;;;;4952829;28;21014;-52
2023/04/25 06:57:13;;;;;;;6.90;3.17;;;9.20;99.90;;;;;;4952788;28;20171;-53
2023/04/25 06:59:38;;;;;;;15.52;4.28;;;9.20;99.90;;;;;;4952775;28;20538;-50
2023/04/25 07:02:05;;;;;;;14.63;3.63;;;;;;;;;;4965692;28;20195;-49
2023/04/25 07:04:31;;;;;;;12.90;4.18;;;9.10;99.90;;;;;;4972370;28;20177;-52
2023/04/25 07:06:57;;;;;;;9.77;2.60;;;9.20;99.90;;;;;;4972482;28;20205;-48
2023/04/25 07:09:22;;;;;;;12.32;3.20;;;9.20;99.90;;;;;;4972443;28;20217;-51
2023/04/25 07:11:48;;;;;;;11.85;3.38;;;9.50;99.90;;;;;;4972200;28;20170;-49
2023/04/25 07:14:14;;;;;;;20.25;4.10;;;9.50;99.90;;;;;;4988956;28;20212;-48
2023/04/25 07:16:41;;;;;;;21.48;4.18;;;;;;;;;;4991492;28;20173;-48
2023/04/25 07:19:07;;;;;;;6.90;3.30;;;9.50;99.90;;;;;;4991548;28;20180;-47
2023/04/25 07:21:32;;;;;;;6.95;3.38;;;9.40;99.90;;;;;;4991138;28;20168;-48
2023/04/25 07:23:58;;;;;;;9.57;3.28;;;;;;;;;;4991392;28;20169;-47
2023/04/25 07:26:24;;;;;;;11.95;3.47;;;9.60;99.90;;;;;;4991388;28;20169;-49
2023/04/25 07:28:50;;;;;;;12.48;4.25;;;;;;;;;;4977593;28;20543;-48
2023/04/25 07:31:18;;;;;;;7.53;3.45;;;9.50;99.90;;;;;;4971577;28;20592;-51
2023/04/25 07:33:45;;;;;;;15.05;3.10;;;9.50;99.90;;;;;;4971312;28;20545;-51
2023/04/25 07:36:10;;;;;;;14.70;3.83;;;9.40;99.90;;;;;;4971699;28;20235;-53
2023/04/25 07:38:36;;;;;;;9.48;4.07;;;;;;;;;;4970151;28;20177;-52
2023/04/25 07:41:02;;;;;;;12.88;3.35;;;9.50;99.90;;;;;;4971510;28;20263;-53
2023/04/25 07:43:27;;;;;;;12.60;3.65;;;9.50;99.90;;;;;;4971363;28;20170;-51
2023/04/25 07:45:53;;;;;;;15.43;3.88;;;9.70;99.90;;;;;;4971528;28;20260;-55
2023/04/25 07:48:19;;;;;;;12.52;3.78;;;;;;;;;;4977926;28;20168;-50
2023/04/25 07:50:45;;;;;;;12.43;3.88;;;9.90;99.90;;;;;;4990641;28;20177;-47
2023/04/25 07:53:11;;;;;;;16.17;4.28;;;10.00;99.90;;;;;;4990527;28;20532;-51
2023/04/25 07:55:39;;;;;;;20.70;3.95;;;;;;;;;;4990637;28;20243;-47
2023/04/25 07:58:05;;;;;;;10.63;3.35;;;;;;;;;;4990948;28;20177;-49
2023/04/25 08:00:31;;;;;;;8.05;2.88;;;10.20;99.90;;;;;;4990595;28;20516;-47
2023/04/25 08:02:57;;;;;;;10.90;3.10;;;;;;;;;;4976152;28;20174;-48
2023/04/25 08:05:23;;;;;;;8.68;3.85;;;;;;;;;;4971654;28;20598;-47
2023/04/25 08:07:49;;;;;;;12.88;3.10;;;;;;;;;;4970960;28;20174;-48
2023/04/25 08:10:15;;;;;;;11.10;4.00;;;10.50;99.90;;;;;;4973384;28;20228;-48
2023/04/25 08:12:40;;;;;;;7.82;3.08;;;10.60;99.90;;;;;;4983461;28;20182;-47
2023/04/25 08:15:07;;;;;;;10.40;2.80;;;10.60;99.90;;;;;;4969247;28;20205;-48
2023/04/25 08:17:32;;;;;;;10.35;3.13;;;10.60;99.90;;;;;;4980422;28;20177;-48
2023/04/25 08:19:58;;;;;;;7.75;2.65;;;;;;;;;;5070992;28;20166;-47
2023/04/25 08:22:24;;;;;;;10.82;2.70;;;;;;;;;;5071374;28;20232;-48
2023/04/25 08:24:50;;;;;;;11.93;3.10;;;10.40;99.90;;;;;;5070781;28;20170;-51
2023/04/25 08:27:16;;;;;;;10.27;2.50;;;;;;;;;;5070835;28;20241;-47
2023/04/25 08:29:42;;;;;;;13.02;3.00;;;10.60;99.90;;;;;;5070820;28;20174;-47
2023/04/25 08:32:08;;;;;;;9.57;2.78;;;;;;;;;;5071419;28;20170;-48
2023/04/25 08:34:34;;;;;;;8.60;2.72;;;;;;;;;;5015691;28;20213;-47
2023/04/25 08:37:00;;;;;;;8.38;2.63;;;;;;;;;;4987905;28;20179;-48
2023/04/25 08:39:26;;;;;;;10.15;2.58;;;;;;;;;;4989052;28;20180;-48
2023/04/25 08:41:52;;;;;;;8.70;2.80;;;;;;;;;;4988824;28;20176;-47
2023/04/25 08:44:19;;;;;;;13.35;2.80;;;10.50;99.90;;;;;;4988714;28;20226;-47
2023/04/25 08:46:49;;;;;;;9.77;2.85;;;10.50;99.90;;;;;;4988214;28;20297;-48
2023/04/25 08:49:16;;;;;;;6.03;2.13;;;10.40;99.90;;;;;;4988638;28;20180;-51
2023/04/25 08:51:47;;;;;;;9.02;3.33;;;10.20;99.90;;;;;;4988317;28;20169;-51
2023/04/25 08:54:14;;;;;;;12.48;3.63;;;10.20;99.90;;;;;;4988014;28;20735;-51
2023/04/25 08:56:47;;;;;;;8.52;2.55;;;10.30;99.90;;;;;;4988170;28;20176;-51
2023/04/25 08:59:13;;;;;;;4.30;2.58;;;10.50;99.90;;;;;;4987508;28;20283;-51
2023/04/25 09:01:39;;;;;;;13.02;3.03;;;10.80;99.90;;;;;;4986813;28;20731;-51
2023/04/25 09:04:05;;;;;;;8.30;2.30;;;;;;;;;;4979864;28;20264;-51
2023/04/25 09:06:32;;;;;;;8.15;2.95;;;11.20;99.90;;;;;;4968620;28;20657;-51
2023/04/25 09:09:05;;;;;;;8.38;3.17;;;11.30;99.90;;;;;;4968536;28;20758;-51
2023/04/25 09:11:32;;;;;;;11.68;3.00;;;11.30;99.90;;;;;;4968557;28;20649;-50
2023/04/25 09:14:30;;;;;;;7.35;2.53;;;11.20;99.90;;;;;;4968624;28;20285;-48
2023/04/25 09:16:55;;;;;;;7.25;2.58;;;11.10;99.90;;;;;;5012163;28;20193;-48
2023/04/25 09:19:26;;;;;;;8.85;2.60;;;11.00;99.90;;;;;;4968578;28;20170;-48
2023/04/25 09:22:00;;;;;;;7.78;2.60;;;10.90;99.90;;;;;;4967616;28;20184;-49
2023/04/25 09:24:36;;;;;;;10.45;2.35;;;10.60;99.90;;;;;;4968984;28;20649;-48
2023/04/25 09:27:10;;;;;;;7.72;2.22;;;10.80;99.90;;;;;;4968456;28;20172;-48
2023/04/25 09:29:38;;;;;;;6.95;2.50;;;10.80;99.90;;;;;;4968103;28;20178;-48
2023/04/25 09:32:12;;;;;;;9.23;2.40;;;10.90;99.90;;;;;;4968534;28;20546;-48
2023/04/25 09:34:43;;;;;;;11.95;2.55;;;10.60;99.90;;;;;;4967415;28;20692;-48
2023/04/25 09:37:12;;;;;;;10.02;3.03;;;10.40;99.90;;;;;;4968215;28;20247;-48
2023/04/25 09:39:38;;;;;;;7.53;1.95;;;10.30;99.90;;;;;;4968423;28;20185;-48
2023/04/25 09:42:04;;;;;;;6.53;2.95;;;10.30;99.90;;;;;;4968535;28;20177;-48
2023/04/25 09:44:30;;;;;;;14.40;3.08;;;;;;;;;;4968198;28;20268;-48
2023/04/25 09:46:56;;;;;;;14.73;3.80;;;10.20;99.90;;;;;;4968408;28;20252;-48
2023/04/25 09:49:22;;;;;;;7.97;2.88;;;10.20;99.90;;;;;;4968235;28;20653;-48
2023/04/25 09:51:56;;;;;;;8.20;2.80;;;10.30;99.90;;;;;;4968026;28;20208;-48
2023/04/25 09:54:22;;;;;;;9.55;2.88;;;;;;;;;;4968493;28;20209;-48
2023/04/25 09:56:51;;;;;;;10.90;2.47;;;10.60;99.90;;;;;;4967925;28;20248;-48
2023/04/25 09:59:18;;;;;;;6.18;2.35;;;10.60;99.90;;;;;;4967937;28;20169;-48
2023/04/25 10:01:44;;;;;;;7.18;2.75;;;;;;;;;;4967782;28;20172;-48
2023/04/25 10:04:21;;;;;;;8.68;2.47;;;11.00;99.90;;;;;;4967790;28;20762;-48
2023/04/25 10:06:49;;;;;;;10.88;2.63;;;11.10;99.90;;;;;;4967831;28;20173;-48
2023/04/25 10:09:15;;;;;;;9.82;2.30;;;11.00;99.90;;;;;;4967728;28;20228;-48
2023/04/25 10:11:41;;;;;;;7.47;2.33;;;;;;;;;;4971125;28;20178;-49
2023/04/25 10:14:07;;;;;;;8.07;2.38;;;;;;;;;;4971208;28;20568;-49
2023/04/25 10:16:33;;;;;;;8.25;2.50;;;11.10;99.90;;;;;;4969891;28;20178;-52
2023/04/25 10:18:59;;;;;;;9.05;2.20;;;11.20;99.90;;;;;;4971232;28;20255;-52
2023/04/25 10:21:28;;;;;;;6.97;2.85;;;11.30;99.90;;;;;;4971681;28;20176;-51
2023/04/25 10:23:54;;;;;;;12.32;3.22;;;11.20;99.90;;;;;;4971413;28;20173;-52
2023/04/25 10:26:20;;;;;;;5.80;2.67;;;11.00;99.90;;;;;;4971109;28;20177;-52
2023/04/25 10:28:56;;;;;;;9.52;2.25;;;10.90;99.90;;;;;;4970999;28;21119;-52
2023/04/25 10:31:22;;;;;;;7.95;2.33;;;10.70;99.90;;;;;;4971417;28;20169;-52
2023/04/25 10:33:49;;;;;;;7.50;2.28;;;10.50;99.90;;;;;;4978102;28;20278;-51
2023/04/25 10:36:18;;;;;;;4.70;2.20;;;10.20;99.90;;;;;;4990645;28;20260;-53
2023/04/25 10:38:45;;;;;;;5.57;1.83;;;10.10;99.90;;;;;;4990301;28;20256;-52
2023/04/25 10:41:12;;;;;;;2.75;1.50;;;10.10;99.90;;;;;;4990294;28;20169;-52
2023/04/25 10:43:41;;;;;;;7.10;2.10;;;10.20;99.90;;;;;;4990002;28;20172;-52
2023/04/25 10:46:23;;;;;;;8.02;2.28;;;10.30;99.90;;;;;;4990221;28;20176;-51
2023/04/25 10:48:50;;;;;;;5.35;1.83;;;10.50;99.90;;;;;;4990169;28;20175;-52
2023/04/25 10:51:25;;;;;;;5.40;1.75;;;10.70;99.90;;;;;;4990149;28;20169;-51
2023/04/25 10:54:05;;;;;;;5.13;1.85;;;10.70;99.90;;;;;;4989928;28;20199;-52
2023/04/25 10:56:39;;;;;;;6.55;2.03;;;14.70;99.90;;;;;;4984643;28;20718;-52
2023/04/25 10:59:07;;;;;;;5.72;1.85;;;11.20;99.90;;;;;;4970475;28;20648;-51
2023/04/25 11:01:43;;;;;;;6.75;2.40;;;11.20;99.90;;;;;;4970845;28;20604;-52
2023/04/25 11:04:23;;;;;;;3.42;1.67;;;11.50;99.90;;;;;;4983254;28;20263;-52
2023/04/25 11:07:20;;;;;;;5.53;1.92;;;11.70;99.90;;;;;;4988362;28;20211;-52
2023/04/25 11:09:45;;;;;;;10.63;1.90;;;11.60;99.90;;;;;;4968477;28;20223;-52
2023/04/25 11:12:12;;;;;;;4.75;1.90;;;11.70;99.90;;;;;;4970324;28;20170;-51
2023/04/25 11:14:38;;;;;;;6.15;2.28;;;;;;;;;;4970212;28;20255;-51
2023/04/25 11:17:05;;;;;;;5.10;1.67;;;;;;;;;;4970158;28;20177;-50
2023/04/25 11:19:31;;;;;;;5.63;1.63;;;;;;;;;;4970328;28;20173;-52
2023/04/25 11:21:58;;;;;;;4.55;1.83;;;11.70;99.90;;;;;;4969825;28;20178;-56
2023/04/25 11:24:34;;;;;;;4.25;1.80;;;11.60;99.90;;;;;;4970466;28;20697;-51
2023/04/25 11:27:04;;;;;;;5.93;2.67;;;11.70;99.90;;;;;;4970370;28;20199;-50
2023/04/25 11:29:31;;;;;;;5.93;1.60;;;11.60;99.90;;;;;;4970101;28;20182;-49
2023/04/25 11:32:00;;;;;;;4.20;1.92;;;11.40;99.90;;;;;;4970266;28;20176;-50
2023/04/25 11:34:27;;;;;;;7.95;2.00;;;11.20;99.90;;;;;;4985150;28;20216;-49
2023/04/25 11:36:53;;;;;;;3.13;1.65;;;11.70;99.90;;;;;;4989904;28;20173;-49
2023/04/25 11:39:19;;;;;;;7.18;1.80;;;12.00;99.90;;;;;;4989393;28;20694;-51
2023/04/25 11:41:46;;;;;;;1.92;1.40;;;12.30;99.90;;;;;;4989186;28;20173;-54
2023/04/25 11:44:11;;;;;;;2.35;1.50;;;12.50;99.90;;;;;;4989409;28;20165;-54
2023/04/25 11:46:37;;;;;;;9.05;1.63;;;;;;;;;;4989378;28;20587;-48
2023/04/25 11:49:04;;;;;;;5.70;2.45;;;12.90;99.90;;;;;;4989265;28;20173;-53
2023/04/25 11:51:31;;;;;;;6.60;2.17;;;13.00;99.90;;;;;;4989333;28;20260;-53
2023/04/25 11:53:57;;;;;;;4.00;1.50;;;13.30;99.90;;;;;;4989409;28;20200;-53
2023/04/25 11:56:22;;;;;;;3.55;1.73;;;13.60;97.30;;;;;;4989567;28;20701;-48
2023/04/25 11:58:59;;;;;;;3.72;2.08;;;13.80;98.70;;;;;;4989127;28;20168;-53
2023/04/25 12:01:35;;;;;;;5.10;2.10;;;13.60;97.70;;;;;;4989737;28;20191;-54
2023/04/25 12:04:21;;;;;;;8.55;2.03;;;13.40;97.30;;;;;;4974243;28;20804;-51
2023/04/25 12:06:48;;;;;;;6.68;2.20;;;12.80;99.70;;;;;;4969418;28;20200;-49
2023/04/25 12:09:17;;;;;;;6.25;2.03;;;12.50;96.80;;;;;;4969604;28;20308;-53
2023/04/25 12:11:48;;;;;;;5.07;1.65;;;12.40;97.20;;;;;;4969618;28;20264;-51
2023/04/25 12:14:28;;;;;;;2.90;1.30;;;12.40;99.90;;;;;;4969415;28;20232;-49
2023/04/25 12:16:59;;;;;;;6.20;2.22;;;12.40;97.90;;;;;;4969745;28;20184;-54
2023/04/25 12:19:25;;;;;;;7.05;2.28;;;12.20;98.50;;;;;;4969564;28;20584;-53
2023/04/25 12:21:51;;;;;;;4.28;1.80;;;;;;;;;;4970004;28;20283;-50
2023/04/25 12:24:24;;;;;;;4.97;2.22;;;11.90;99.90;;;;;;4980324;28;20551;-50
2023/04/25 12:27:02;;;;;;;4.88;1.67;;;11.70;99.90;;;;;;4988804;28;20184;-50
2023/04/25 12:29:31;;;;;;;7.75;3.15;;;11.60;99.90;;;;;;4988747;28;20243;-50
2023/04/25 12:31:57;;;;;;;5.25;2.50;;;11.70;99.90;;;;;;4987077;28;20234;-54
2023/04/25 12:34:23;;;;;;;5.15;2.28;;;;;;;;;;4988654;28;20204;-52
2023/04/25 12:36:50;;;;;;;4.88;1.90;;;11.80;99.90;;;;;;4988583;28;20173;-51
2023/04/25 12:39:23;;;;;;;6.47;1.48;;;11.60;99.90;;;;;;4988677;28;20177;-49
2023/04/25 12:41:53;;;;;;;5.53;2.10;;;11.70;99.90;;;;;;4988430;28;20184;-50
2023/04/25 12:44:20;;;;;;;8.90;2.10;;;11.80;99.90;;;;;;4988769;28;20180;-51
2023/04/25 12:46:46;;;;;;;7.55;2.38;;;11.60;99.90;;;;;;4988437;28;20203;-53
2023/04/25 12:49:12;;;;;;;3.35;1.90;;;11.50;99.90;;;;;;4988734;28;20200;-50
2023/04/25 12:51:38;;;;;;;4.50;2.25;;;11.60;99.90;;;;;;4988260;28;20227;-50
2023/04/25 12:54:05;;;;;;;5.10;1.77;;;11.70;99.90;;;;;;4977925;28;20212;-53
2023/04/25 12:56:31;;;;;;;5.65;1.60;;;;;;;;;;4968760;28;20192;-52
2023/04/25 12:58:58;;;;;;;7.47;1.80;;;12.30;98.40;;;;;;4969049;28;20596;-53
2023/04/25 13:01:24;;;;;;;3.05;1.58;;;;;;;;;;4969441;28;20170;-54
2023/04/25 13:03:50;;;;;;;6.00;1.90;;;12.50;99.90;;;;;;4968818;28;20172;-54
2023/04/25 13:06:16;;;;;;;6.47;2.30;;;12.90;99.40;;;;;;4968674;28;20173;-46